Time,TemperatureF,DewpointF,PressureIn,WindDirection,WindDirectionDegrees,WindSpeedMPH,WindSpeedGustMPH,Humidity,HourlyPrecipIn,Conditions,Clouds,dailyrainin,SoftwareType,DateUTC
2013-05-21 00:10:00,50.3,48.0,29.76,NE,45,1.0,-999.0,91,-99.99,,,0.00,weatherlink.com 1.10,2013-05-21 04:10:00,
2013-05-21 00:25:00,48.8,46.0,29.76,NE,45,1.0,-999.0,90,-99.99,,,0.00,weatherlink.com 1.10,2013-05-21 04:25:00,
2013-05-21 00:40:00,47.6,45.0,29.77,NE,46,1.0,-999.0,91,-99.99,,,0.00,weatherlink.com 1.10,2013-05-21 04:40:00,
2013-05-21 00:55:00,47.1,45.0,29.77,NE,46,2.0,-999.0,92,-99.99,,,0.00,weatherlink.com 1.10,2013-05-21 04:55:00,
2013-05-21 01:10:00,46.3,44.0,29.78,NE,46,0.0,-999.0,92,-99.99,,,0.00,weatherlink.com 1.10,2013-05-21 05:10:00,
2013-05-21 01:25:00,45.6,44.0,29.78,NE,46,0.0,-999.0,92,-99.99,,,0.00,weatherlink.com 1.10,2013-05-21 05:25:00,
2013-05-21 01:40:00,45.2,43.0,29.77,NE,46,0.0,-999.0,92,-99.99,,,0.00,weatherlink.com 1.10,2013-05-21 05:40:00,
2013-05-21 01:55:00,45.2,43.0,29.77,NE,46,0.0,-999.0,93,-99.99,,,0.00,weatherlink.com 1.10,2013-05-21 05:55:00,
2013-05-21 02:10:00,45.0,43.0,29.77,NE,46,1.0,-999.0,93,-99.99,,,0.00,weatherlink.com 1.10,2013-05-21 06:10:00,
2013-05-21 02:25:00,44.7,43.0,29.77,NE,46,0.0,-999.0,93,-99.99,,,0.00,weatherlink.com 1.10,2013-05-21 06:25:00,
2013-05-21 02:40:00,44.1,42.0,29.77,NE,46,0.0,-999.0,93,-99.99,,,0.00,weatherlink.com 1.10,2013-05-21 06:40:00,
2013-05-21 02:55:00,43.6,42.0,29.77,NE,46,0.0,-999.0,93,-99.99,,,0.00,weatherlink.com 1.10,2013-05-21 06:55:00,
2013-05-21 03:10:00,43.6,42.0,29.76,NE,46,0.0,-999.0,94,-99.99,,,0.00,weatherlink.com 1.10,2013-05-21 07:10:00,
2013-05-21 03:25:00,43.7,42.0,29.75,NE,46,0.0,-999.0,94,-99.99,,,0.00,weatherlink.com 1.10,2013-05-21 07:25:00,
2013-05-21 03:40:00,43.8,43.0,29.75,NE,46,0.0,-999.0,95,-99.99,,,0.00,weatherlink.com 1.10,2013-05-21 07:40:00,
2013-05-21 03:55:00,44.0,43.0,29.74,NE,46,0.0,-999.0,95,-99.99,,,0.00,weatherlink.com 1.10,2013-05-21 07:55:00,
2013-05-21 04:10:00,44.0,43.0,29.74,NE,46,1.0,-999.0,95,-99.99,,,0.00,weatherlink.com 1.10,2013-05-21 08:10:00,
2013-05-21 04:25:00,43.6,42.0,29.75,NE,46,0.0,-999.0,94,-99.99,,,0.00,weatherlink.com 1.10,2013-05-21 08:25:00,
2013-05-21 04:40:00,43.4,42.0,29.75,NE,46,0.0,-999.0,94,-99.99,,,0.00,weatherlink.com 1.10,2013-05-21 08:40:00,
2013-05-21 04:55:00,43.3,42.0,29.74,NE,46,0.0,-999.0,95,-99.99,,,0.00,weatherlink.com 1.10,2013-05-21 08:55:00,
2013-05-21 05:10:00,43.4,42.0,29.74,NE,46,1.0,-999.0,95,-99.99,,,0.00,weatherlink.com 1.10,2013-05-21 09:10:00,
2013-05-21 05:25:00,43.2,42.0,29.77,West,265,0.0,-999.0,95,-99.99,,,0.00,weatherlink.com 1.10,2013-05-21 09:25:00,
2013-05-21 05:40:00,43.2,42.0,29.75,West,265,0.0,-999.0,95,-99.99,,,0.00,weatherlink.com 1.10,2013-05-21 09:40:00,
2013-05-21 05:55:00,43.5,42.0,29.74,West,265,0.0,-999.0,95,-99.99,,,0.01,weatherlink.com 1.10,2013-05-21 09:55:00,
2013-05-21 06:10:00,44.0,43.0,29.73,West,265,0.0,-999.0,95,-99.99,,,0.01,weatherlink.com 1.10,2013-05-21 10:10:00,
2013-05-21 06:25:00,44.6,43.0,29.73,West,265,0.0,-999.0,95,-99.99,,,0.01,weatherlink.com 1.10,2013-05-21 10:25:00,
2013-05-21 06:40:00,44.8,44.0,29.73,West,265,0.0,-999.0,95,-99.99,,,0.03,weatherlink.com 1.10,2013-05-21 10:40:00,
2013-05-21 06:55:00,45.4,44.0,29.72,West,265,0.0,-999.0,96,-99.99,,,0.04,weatherlink.com 1.10,2013-05-21 10:55:00,
2013-05-21 07:10:00,46.3,45.0,29.72,NNW,346,0.0,-999.0,96,-99.99,,,0.05,weatherlink.com 1.10,2013-05-21 11:10:00,
2013-05-21 07:25:00,46.3,45.0,29.72,NNW,345,0.0,-999.0,95,-99.99,,,0.07,weatherlink.com 1.10,2013-05-21 11:25:00,
2013-05-21 07:40:00,46.0,45.0,29.71,NNW,345,0.0,-999.0,96,-99.99,,,0.12,weatherlink.com 1.10,2013-05-21 11:40:00,
2013-05-21 07:55:00,45.8,45.0,29.71,NNW,345,0.0,-999.0,95,-99.99,,,0.15,weatherlink.com 1.10,2013-05-21 11:55:00,
2013-05-21 08:10:00,45.9,45.0,29.70,NNW,346,0.0,-999.0,95,-99.99,,,0.19,weatherlink.com 1.10,2013-05-21 12:10:00,
2013-05-21 08:25:00,46.3,45.0,29.70,NNW,346,0.0,-999.0,95,-99.99,,,0.20,weatherlink.com 1.10,2013-05-21 12:25:00,
2013-05-21 08:40:00,47.0,46.0,29.70,NNW,345,0.0,-999.0,96,-99.99,,,0.20,weatherlink.com 1.10,2013-05-21 12:40:00,
2013-05-21 08:55:00,47.6,47.0,29.71,NNW,345,0.0,-999.0,96,-99.99,,,0.22,weatherlink.com 1.10,2013-05-21 12:55:00,
2013-05-21 09:10:00,47.8,47.0,29.70,NNW,346,1.0,-999.0,96,-99.99,,,0.24,weatherlink.com 1.10,2013-05-21 13:10:00,
2013-05-21 09:25:00,48.4,47.0,29.70,NNW,346,0.0,-999.0,96,-99.99,,,0.24,weatherlink.com 1.10,2013-05-21 13:25:00,
2013-05-21 09:40:00,48.7,48.0,29.70,NNE,17,1.0,-999.0,96,-99.99,,,0.24,weatherlink.com 1.10,2013-05-21 13:40:00,
2013-05-21 09:55:00,48.2,47.0,29.71,NNE,27,0.0,-999.0,96,-99.99,,,0.25,weatherlink.com 1.10,2013-05-21 13:55:00,
2013-05-21 10:10:00,48.3,47.0,29.70,NNE,26,0.0,-999.0,96,-99.99,,,0.25,weatherlink.com 1.10,2013-05-21 14:10:00,
2013-05-21 10:25:00,48.3,47.0,29.70,NNE,27,0.0,-999.0,96,-99.99,,,0.25,weatherlink.com 1.10,2013-05-21 14:25:00,
2013-05-21 10:40:00,48.5,48.0,29.70,NNE,27,0.0,-999.0,96,-99.99,,,0.25,weatherlink.com 1.10,2013-05-21 14:40:00,
2013-05-21 10:55:00,49.3,48.0,29.70,NNE,27,0.0,-999.0,96,-99.99,,,0.25,weatherlink.com 1.10,2013-05-21 14:55:00,
2013-05-21 11:10:00,50.2,49.0,29.69,NNE,27,0.0,-999.0,96,-99.99,,,0.25,weatherlink.com 1.10,2013-05-21 15:10:00,
2013-05-21 11:25:00,51.1,50.0,29.69,NNE,26,1.0,-999.0,96,-99.99,,,0.26,weatherlink.com 1.10,2013-05-21 15:25:00,
2013-05-21 11:40:00,51.2,50.0,29.70,NNE,27,1.0,-999.0,96,-99.99,,,0.26,weatherlink.com 1.10,2013-05-21 15:40:00,
2013-05-21 11:55:00,52.2,51.0,29.70,NNE,26,0.0,-999.0,96,-99.99,,,0.26,weatherlink.com 1.10,2013-05-21 15:55:00,
2013-05-21 12:10:00,52.3,51.0,29.70,NNE,27,1.0,-999.0,96,-99.99,,,0.26,weatherlink.com 1.10,2013-05-21 16:10:00,
2013-05-21 12:25:00,52.6,52.0,29.70,NNE,26,0.0,-999.0,96,-99.99,,,0.26,weatherlink.com 1.10,2013-05-21 16:25:00,
2013-05-21 12:40:00,53.5,52.0,29.70,NNE,27,0.0,-999.0,96,-99.99,,,0.26,weatherlink.com 1.10,2013-05-21 16:40:00,
2013-05-21 12:55:00,53.3,52.0,29.70,NNE,27,1.0,-999.0,96,-99.99,,,0.26,weatherlink.com 1.10,2013-05-21 16:55:00,
2013-05-21 13:10:00,52.6,52.0,29.70,NE,34,0.0,-999.0,96,-99.99,,,0.26,weatherlink.com 1.10,2013-05-21 17:10:00,
2013-05-21 13:25:00,52.3,51.0,29.69,NE,34,0.0,-999.0,95,-99.99,,,0.26,weatherlink.com 1.10,2013-05-21 17:25:00,
2013-05-21 13:40:00,53.4,52.0,29.68,ESE,113,0.0,-999.0,96,-99.99,,,0.26,weatherlink.com 1.10,2013-05-21 17:40:00,
2013-05-21 13:55:00,55.0,54.0,29.68,ENE,57,0.0,-999.0,96,-99.99,,,0.26,weatherlink.com 1.10,2013-05-21 17:55:00,
2013-05-21 14:09:00,55.8,54.0,29.67,NE,40,0.0,-999.0,92,-99.99,,,0.26,weatherlink.com 1.10,2013-05-21 18:09:00,
2013-05-21 14:24:00,56.8,54.0,29.67,NE,40,3.0,-999.0,89,-99.99,,,0.26,weatherlink.com 1.10,2013-05-21 18:24:00,
2013-05-21 14:39:00,57.1,54.0,29.67,NE,40,2.0,-999.0,90,-99.99,,,0.26,weatherlink.com 1.10,2013-05-21 18:39:00,
2013-05-21 14:54:00,56.8,53.0,29.66,NE,40,2.0,-999.0,86,-99.99,,,0.26,weatherlink.com 1.10,2013-05-21 18:54:00,
2013-05-21 15:09:00,55.1,50.0,29.67,NE,40,1.0,-999.0,84,-99.99,,,0.26,weatherlink.com 1.10,2013-05-21 19:09:00,
2013-05-21 15:24:00,53.5,50.0,29.68,NNE,31,3.0,-999.0,87,-99.99,,,0.26,weatherlink.com 1.10,2013-05-21 19:24:00,
2013-05-21 15:39:00,52.8,49.0,29.68,NE,40,0.0,-999.0,88,-99.99,,,0.26,weatherlink.com 1.10,2013-05-21 19:39:00,
2013-05-21 15:54:00,53.3,50.0,29.69,NE,36,1.0,-999.0,89,-99.99,,,0.26,weatherlink.com 1.10,2013-05-21 19:54:00,
2013-05-21 16:09:00,51.8,48.0,29.69,North,360,0.0,-999.0,86,-99.99,,,0.26,weatherlink.com 1.10,2013-05-21 20:09:00,
2013-05-21 16:25:00,51.0,47.0,29.70,North,360,1.0,-999.0,86,-99.99,,,0.26,weatherlink.com 1.10,2013-05-21 20:25:00,
2013-05-21 16:39:00,49.5,46.0,29.70,NE,41,1.0,-999.0,88,-99.99,,,0.26,weatherlink.com 1.10,2013-05-21 20:39:00,
2013-05-21 16:54:00,49.5,46.0,29.71,NE,40,1.0,-999.0,89,-99.99,,,0.26,weatherlink.com 1.10,2013-05-21 20:54:00,
2013-05-21 17:09:00,49.6,47.0,29.71,NE,42,2.0,-999.0,90,-99.99,,,0.26,weatherlink.com 1.10,2013-05-21 21:09:00,
2013-05-21 17:25:00,49.1,46.0,29.71,ENE,65,1.0,-999.0,90,-99.99,,,0.26,weatherlink.com 1.10,2013-05-21 21:25:00,
2013-05-21 17:40:00,49.0,47.0,29.71,NE,45,1.0,-999.0,91,-99.99,,,0.26,weatherlink.com 1.10,2013-05-21 21:40:00,
2013-05-21 17:55:00,49.0,47.0,29.72,NE,45,0.0,-999.0,91,-99.99,,,0.26,weatherlink.com 1.10,2013-05-21 21:55:00,
2013-05-21 18:10:00,48.7,46.0,29.72,NE,46,1.0,-999.0,91,-99.99,,,0.26,weatherlink.com 1.10,2013-05-21 22:10:00,
2013-05-21 18:25:00,48.5,46.0,29.73,NE,46,0.0,-999.0,91,-99.99,,,0.26,weatherlink.com 1.10,2013-05-21 22:25:00,
2013-05-21 18:40:00,48.1,46.0,29.72,NE,46,1.0,-999.0,92,-99.99,,,0.26,weatherlink.com 1.10,2013-05-21 22:40:00,
2013-05-21 18:55:00,48.1,46.0,29.72,NE,45,0.0,-999.0,93,-99.99,,,0.26,weatherlink.com 1.10,2013-05-21 22:55:00,
2013-05-21 19:10:00,48.3,47.0,29.72,NE,45,2.0,-999.0,94,-99.99,,,0.26,weatherlink.com 1.10,2013-05-21 23:10:00,
2013-05-21 19:25:00,47.3,45.0,29.72,NE,51,1.0,-999.0,93,-99.99,,,0.26,weatherlink.com 1.10,2013-05-21 23:25:00,
2013-05-21 19:40:00,46.8,45.0,29.72,NE,51,1.0,-999.0,93,-99.99,,,0.27,weatherlink.com 1.10,2013-05-21 23:40:00,
2013-05-21 19:55:00,46.5,45.0,29.71,NE,51,1.0,-999.0,94,-99.99,,,0.27,weatherlink.com 1.10,2013-05-21 23:55:00,
2013-05-21 20:10:00,46.8,45.0,29.71,NE,51,1.0,-999.0,94,-99.99,,,0.27,weatherlink.com 1.10,2013-05-22 00:10:00,
2013-05-21 20:25:00,46.3,45.0,29.72,NE,51,0.0,-999.0,94,-99.99,,,0.27,weatherlink.com 1.10,2013-05-22 00:25:00,
2013-05-21 20:40:00,46.1,45.0,29.71,NNE,23,1.0,-999.0,94,-99.99,,,0.27,weatherlink.com 1.10,2013-05-22 00:40:00,
2013-05-21 20:55:00,45.9,44.0,29.73,NNE,26,0.0,-999.0,94,-99.99,,,0.27,weatherlink.com 1.10,2013-05-22 00:55:00,
2013-05-21 21:10:00,45.8,44.0,29.73,NNE,27,0.0,-999.0,94,-99.99,,,0.27,weatherlink.com 1.10,2013-05-22 01:10:00,
2013-05-21 21:24:00,45.6,44.0,29.73,NNE,27,0.0,-999.0,94,-99.99,,,0.27,weatherlink.com 1.10,2013-05-22 01:24:00,
2013-05-21 21:40:00,45.4,44.0,29.74,NNE,27,0.0,-999.0,94,-99.99,,,0.27,weatherlink.com 1.10,2013-05-22 01:40:00,
2013-05-21 21:55:00,45.3,44.0,29.74,NNE,27,0.0,-999.0,94,-99.99,,,0.27,weatherlink.com 1.10,2013-05-22 01:55:00,
2013-05-21 22:10:00,45.2,44.0,29.74,NNE,26,1.0,-999.0,95,-99.99,,,0.27,weatherlink.com 1.10,2013-05-22 02:10:00,
2013-05-21 22:25:00,45.2,44.0,29.75,NNE,26,0.0,-999.0,95,-99.99,,,0.27,weatherlink.com 1.10,2013-05-22 02:25:00,
2013-05-21 22:40:00,45.4,44.0,29.75,NNE,27,0.0,-999.0,95,-99.99,,,0.27,weatherlink.com 1.10,2013-05-22 02:40:00,
2013-05-21 22:55:00,45.3,44.0,29.76,NNE,27,0.0,-999.0,95,-99.99,,,0.27,weatherlink.com 1.10,2013-05-22 02:55:00,
2013-05-21 23:10:00,45.1,44.0,29.75,NNE,27,0.0,-999.0,95,-99.99,,,0.27,weatherlink.com 1.10,2013-05-22 03:10:00,
2013-05-21 23:25:00,44.8,44.0,29.76,North,10,0.0,-999.0,95,-99.99,,,0.27,weatherlink.com 1.10,2013-05-22 03:25:00,
2013-05-21 23:40:00,44.6,43.0,29.76,South,172,0.0,-999.0,95,-99.99,,,0.27,weatherlink.com 1.10,2013-05-22 03:40:00,
2013-05-21 23:55:00,44.3,43.0,29.76,SE,136,0.0,-999.0,95,-99.99,,,0.27,weatherlink.com 1.10,2013-05-22 03:55:00,